Time;durP1;ratioP1;P1;durP2;ratioP2;P2;SDS_P1;SDS_P2;PMS_P1;PMS_P2;Temp;Humidity;BMP_temperature;BMP_pressure;BME280_temperature;BME280_humidity;BME280_pressure;Samples;Min_cycle;Max_cycle;Signal;HPM_P1;HPM_P2
2023/10/05 00:02:10;;;;;;;;;;;;;;;;;;5071041;28;20358;-78
2023/10/05 00:04:45;;;;;;;;;;;;;;;;;;5072264;28;20310;-78
2023/10/05 00:07:17;;;;;;;;;;;;;;;;;;5072293;28;20028;-77
2023/10/05 00:09:44;;;;;;;;;;;;;;;;;;5070218;28;19931;-77
2023/10/05 00:12:18;;;;;;;;;;;;;;;;;;5074652;28;20029;-77
2023/10/05 00:14:48;;;;;;;;;;;;;;;;;;5074464;28;19925;-77
2023/10/05 00:17:16;;;;;;;;;;;;;;;;;;5070989;28;19924;-77
2023/10/05 00:19:44;;;;;;;;;;;;;;;;;;5071095;28;20368;-77
2023/10/05 00:22:11;;;;;;;;;;;;;;;;;;5068510;28;20552;-77
2023/10/05 00:24:39;;;;;;;;;;;;;;;;;;5074231;28;19978;-77
2023/10/05 00:27:08;;;;;;;;;;;;;;;;;;5071946;28;20327;-78
2023/10/05 00:29:41;;;;;;;;;;;;;;;;;;5072629;28;20400;-78
2023/10/05 00:32:13;;;;;;;;;;;;;;;;;;5070508;28;20276;-78
2023/10/05 00:34:41;;;;;;;;;;;;;;;;;;5073256;28;20387;-76
2023/10/05 00:37:08;;;;;;;;;;;;;;;;;;5070105;28;19925;-76
2023/10/05 00:39:37;;;;;;;;;;;;;;;;;;5068714;28;19974;-76
2023/10/05 00:42:08;;;;;;;;;;;;;;;;;;5069807;28;19925;-77
2023/10/05 00:44:36;;;;;;;;;;;;;;;;;;5071785;28;19925;-76
2023/10/05 00:47:06;;;;;;;;;;;;;;;;;;5066108;28;20357;-77
2023/10/05 00:49:41;;;;;;;;;;;;;;;;;;5076071;28;19924;-75
2023/10/05 00:52:13;;;;;;;;;;;;;;;;;;5051722;28;20415;-75
2023/10/05 00:54:40;;;;;;;;;;;;;;;;;;5051476;28;20390;-75
2023/10/05 00:57:13;;;;;;;;;;;;;;;;;;5060682;28;20295;-76
2023/10/05 00:59:40;;;;;;;;;;;;;;;;;;5070612;28;19925;-76
2023/10/05 01:02:14;;;;;;;;;;;;;;;;;;5070905;28;19928;-76
2023/10/05 01:04:55;;;;;;;;;;;;;;;;;;5070693;28;19925;-76
2023/10/05 01:07:39;;;;;;;;;;;;;;;;;;5066290;28;20019;-76
2023/10/05 01:12:52;;;;;;;;;;;;;;;;;;5079020;28;19919;-76
2023/10/05 01:15:19;;;;;;;;;;;;;;;;;;5081633;28;19925;-76
2023/10/05 01:17:47;;;;;;;;;;;;;;;;;;5069711;28;19924;-77
2023/10/05 01:20:22;;;;;;;;;;;;;;;;;;5071863;28;20463;-78
2023/10/05 01:22:49;;;;;;;;;;;;;;;;;;5071625;28;19926;-76
2023/10/05 01:25:16;;;;;;;;;;;;;;;;;;5062706;28;19925;-77
2023/10/05 01:27:44;;;;;;;;;;;;;;;;;;5070445;28;19929;-76
2023/10/05 01:30:12;;;;;;;;;;;;;;;;;;5076292;28;19925;-75
2023/10/05 01:32:41;;;;;;;;;;;;;;;;;;5074537;28;19978;-76
2023/10/05 01:35:09;;;;;;;;;;;;;;;;;;5073771;28;19978;-77
2023/10/05 01:37:36;;;;;;;;;;;;;;;;;;5073262;28;20323;-78
2023/10/05 01:40:11;;;;;;;;;;;;;;;;;;5080984;28;19924;-76
2023/10/05 01:42:40;;;;;;;;;;;;;;;;;;5062380;28;19929;-74
2023/10/05 01:45:07;;;;;;;;;;;;;;;;;;5074729;28;20443;-75
2023/10/05 01:47:34;;;;;;;;;;;;;;;;;;5073370;28;19925;-74
2023/10/05 01:50:03;;;;;;;;;;;;;;;;;;5074215;28;19998;-75
2023/10/05 01:52:30;;;;;;;;;;;;;;;;;;5076032;28;19947;-75
2023/10/05 01:54:59;;;;;;;;;;;;;;;;;;5075096;28;19932;-75
2023/10/05 01:57:28;;;;;;;;;;;;;;;;;;5074753;28;20024;-78
2023/10/05 01:59:55;;;;;;;;;;;;;;;;;;5069450;28;19931;-77
2023/10/05 02:02:22;;;;;;;;;;;;;;;;;;5074905;28;19928;-77
2023/10/05 02:04:50;;;;;;;;;;;;;;;;;;5073179;28;20436;-75
2023/10/05 02:07:18;;;;;;;;;;;;;;;;;;5073159;28;19931;-75
2023/10/05 02:09:45;;;;;;;;;;;;;;;;;;5075546;28;19929;-75
2023/10/05 02:12:13;;;;;;;;;;;;;;;;;;5074999;28;19986;-75
2023/10/05 02:14:41;;;;;;;;;;;;;;;;;;5074820;28;20341;-74
2023/10/05 02:17:08;;;;;;;;;;;;;;;;;;5072464;28;19931;-73
2023/10/05 02:19:36;;;;;;;;;;;;;;;;;;5063433;28;19931;-74
2023/10/05 02:22:10;;;;;;;;;;;;;;;;;;5073289;28;20019;-75
2023/10/05 02:24:40;;;;;;;;;;;;;;;;;;5075169;28;19931;-74
2023/10/05 02:27:11;;;;;;;;;;;;;;;;;;5072797;28;19953;-75
2023/10/05 02:29:42;;;;;;;;;;;;;;;;;;5074521;28;19982;-75
2023/10/05 02:32:11;;;;;;;;;;;;;;;;;;5073757;28;19931;-76
2023/10/05 02:34:41;;;;;;;;;;;;;;;;;;5072808;28;20011;-76
2023/10/05 02:37:11;;;;;;;;;;;;;;;;;;5069577;28;19950;-75
2023/10/05 02:39:38;;;;;;;;;;;;;;;;;;5071624;28;19932;-76
2023/10/05 02:42:11;;;;;;;;;;;;;;;;;;5060087;28;19929;-76
2023/10/05 02:44:39;;;;;;;;;;;;;;;;;;5054956;28;19951;-76
2023/10/05 02:47:08;;;;;;;;;;;;;;;;;;5067137;28;19925;-79
2023/10/05 02:49:39;;;;;;;;;;;;;;;;;;5073418;28;19925;-78
2023/10/05 02:52:07;;;;;;;;;;;;;;;;;;5072607;28;20024;-78
2023/10/05 02:54:36;;;;;;;;;;;;;;;;;;5073680;28;20342;-77
2023/10/05 02:57:07;;;;;;;;;;;;;;;;;;5072873;28;19936;-78
2023/10/05 02:59:34;;;;;;;;;;;;;;;;;;5068766;28;20030;-78
2023/10/05 03:02:06;;;;;;;;;;;;;;;;;;5085859;28;19943;-77
2023/10/05 03:04:45;;;;;;;;;;;;;;;;;;5071918;28;20452;-78
2023/10/05 03:07:14;;;;;;;;;;;;;;;;;;5073727;28;19931;-78
2023/10/05 03:09:42;;;;;;;;;;;;;;;;;;5073494;28;20391;-75
2023/10/05 03:12:09;;;;;;;;;;;;;;;;;;5073145;28;20437;-74
2023/10/05 03:14:36;;;;;;;;;;;;;;;;;;5078389;28;19978;-74
2023/10/05 03:17:05;;;;;;;;;;;;;;;;;;5073234;28;19925;-74
2023/10/05 03:19:36;;;;;;;;;;;;;;;;;;5072448;28;19924;-74
2023/10/05 03:22:04;;;;;;;;;;;;;;;;;;5067536;28;20379;-74
2023/10/05 03:24:33;;;;;;;;;;;;;;;;;;5073783;28;19925;-74
2023/10/05 03:27:02;;;;;;;;;;;;;;;;;;5064879;28;20351;-74
2023/10/05 03:29:29;;;;;;;;;;;;;;;;;;5066242;28;19931;-74
2023/10/05 03:32:04;;;;;;;;;;;;;;;;;;5071381;28;20303;-75
2023/10/05 03:34:32;;;;;;;;;;;;;;;;;;5071388;28;20375;-74
2023/10/05 03:37:03;;;;;;;;;;;;;;;;;;5072837;28;19989;-74
2023/10/05 03:39:35;;;;;;;;;;;;;;;;;;5072306;28;19931;-74
2023/10/05 03:42:02;;;;;;;;;;;;;;;;;;5072655;28;19946;-74
2023/10/05 03:44:31;;;;;;;;;;;;;;;;;;5072638;28;19928;-76
2023/10/05 03:46:58;;;;;;;;;;;;;;;;;;5071615;28;19924;-75
2023/10/05 03:49:25;;;;;;;;;;;;;;;;;;5071214;28;20434;-76
2023/10/05 03:51:52;;;;;;;;;;;;;;;;;;5072768;28;19971;-75
2023/10/05 03:54:19;;;;;;;;;;;;;;;;;;5072798;28;19936;-75
2023/10/05 03:56:50;;;;;;;;;;;;;;;;;;5073386;28;19971;-76
2023/10/05 03:59:17;;;;;;;;;;;;;;;;;;5072598;28;19925;-75
2023/10/05 04:01:48;;;;;;;;;;;;;;;;;;5073269;28;19978;-75
2023/10/05 04:04:16;;;;;;;;;;;;;;;;;;5069006;28;20679;-75
2023/10/05 04:06:44;;;;;;;;;;;;;;;;;;5072617;28;20011;-76
2023/10/05 04:09:15;;;;;;;;;;;;;;;;;;5072756;28;20011;-75
2023/10/05 04:11:43;;;;;;;;;;;;;;;;;;5073291;28;20006;-76
2023/10/05 04:14:10;;;;;;;;;;;;;;;;;;5072200;28;19971;-75
2023/10/05 04:16:38;;;;;;;;;;;;;;;;;;5073454;28;19970;-75
2023/10/05 04:19:05;;;;;;;;;;;;;;;;;;5065460;28;19932;-76
2023/10/05 04:21:32;;;;;;;;;;;;;;;;;;5072417;28;19986;-77
2023/10/05 04:23:59;;;;;;;;;;;;;;;;;;5072252;28;19931;-76
2023/10/05 04:26:32;;;;;;;;;;;;;;;;;;5072898;28;20034;-76
2023/10/05 04:29:03;;;;;;;;;;;;;;;;;;5071642;28;19924;-76
2023/10/05 04:31:31;;;;;;;;;;;;;;;;;;5071072;28;19930;-77
2023/10/05 04:33:59;;;;;;;;;;;;;;;;;;5070141;28;19925;-76
2023/10/05 04:36:26;;;;;;;;;;;;;;;;;;5071867;28;20374;-77
2023/10/05 04:38:54;;;;;;;;;;;;;;;;;;5068354;28;19978;-77
2023/10/05 04:41:21;;;;;;;;;;;;;;;;;;5073238;28;19925;-77
2023/10/05 04:43:50;;;;;;;;;;;;;;;;;;5072141;28;20337;-75
2023/10/05 04:46:18;;;;;;;;;;;;;;;;;;5072242;28;20387;-74
2023/10/05 04:48:55;;;;;;;;;;;;;;;;;;5070716;28;20015;-75
2023/10/05 04:51:22;;;;;;;;;;;;;;;;;;5071096;28;19924;-74
2023/10/05 04:53:53;;;;;;;;;;;;;;;;;;5072497;28;19924;-74
2023/10/05 04:56:34;;;;;;;;;;;;;;;;;;5066910;28;19932;-74
2023/10/05 05:01:56;;;;;;;;;;;;;;;;;;5069438;28;19935;-75
2023/10/05 05:04:27;;;;;;;;;;;;;;;;;;5069959;28;19924;-74
2023/10/05 05:06:54;;;;;;;;;;;;;;;;;;5070194;28;19966;-80
2023/10/05 05:09:22;;;;;;;;;;;;;;;;;;5075672;28;19963;-80
2023/10/05 05:11:49;;;;;;;;;;;;;;;;;;5072177;28;19978;-80
2023/10/05 05:14:17;;;;;;;;;;;;;;;;;;5062933;28;19924;-81
2023/10/05 05:16:44;;;;;;;;;;;;;;;;;;5071453;28;20399;-80
2023/10/05 05:19:11;;;;;;;;;;;;;;;;;;5069716;28;20038;-80
2023/10/05 05:21:38;;;;;;;;;;;;;;;;;;5064364;28;20376;-81
2023/10/05 05:24:07;;;;;;;;;;;;;;;;;;5067803;28;19936;-81
2023/10/05 05:26:34;;;;;;;;;;;;;;;;;;5072260;28;19928;-81
2023/10/05 05:29:02;;;;;;;;;;;;;;;;;;5073076;28;19924;-85
2023/10/05 05:31:30;;;;;;;;;;;;;;;;;;5070182;28;19924;-82
2023/10/05 05:33:59;;;;;;;;;;;;;;;;;;5064056;28;19970;-80
2023/10/05 05:36:27;;;;;;;;;;;;;;;;;;5064904;28;19932;-81
2023/10/05 05:38:56;;;;;;;;;;;;;;;;;;5069221;28;19925;-80
2023/10/05 05:41:27;;;;;;;;;;;;;;;;;;5061559;28;19925;-82
2023/10/05 05:43:55;;;;;;;;;;;;;;;;;;5066397;28;19932;-82
2023/10/05 05:46:23;;;;;;;;;;;;;;;;;;5068209;28;20035;-82
2023/10/05 05:48:52;;;;;;;;;;;;;;;;;;5072283;28;20019;-83
2023/10/05 05:51:23;;;;;;;;;;;;;;;;;;5071384;28;19925;-82
2023/10/05 05:53:52;;;;;;;;;;;;;;;;;;5057042;28;19924;-84
2023/10/05 05:56:19;;;;;;;;;;;;;;;;;;5071759;28;19943;-84
2023/10/05 05:58:47;;;;;;;;;;;;;;;;;;5072604;28;19924;-82
2023/10/05 06:01:17;;;;;;;;;;;;;;;;;;5069435;28;19928;-82
2023/10/05 06:03:47;;;;;;;;;;;;;;;;;;5064102;28;20232;-82
2023/10/05 06:06:14;;;;;;;;;;;;;;;;;;5055908;28;19925;-81
2023/10/05 06:08:42;;;;;;;;;;;;;;;;;;5069482;28;19978;-83
2023/10/05 06:11:09;;;;;;;;;;;;;;;;;;5064928;28;19932;-81
2023/10/05 06:13:37;;;;;;;;;;;;;;;;;;5071222;28;19978;-82
2023/10/05 06:16:04;;;;;;;;;;;;;;;;;;5068078;28;19930;-82
2023/10/05 06:18:32;;;;;;;;;;;;;;;;;;5073774;28;19929;-84
2023/10/05 06:20:59;;;;;;;;;;;;;;;;;;5074119;28;20423;-85
2023/10/05 06:23:26;;;;;;;;;;;;;;;;;;5074514;28;20463;-84
2023/10/05 06:25:53;;;;;;;;;;;;;;;;;;5069629;28;19928;-81
2023/10/05 06:28:20;;;;;;;;;;;;;;;;;;5069501;28;19924;-82
2023/10/05 06:30:48;;;;;;;;;;;;;;;;;;5073909;28;19929;-81
2023/10/05 06:33:15;;;;;;;;;;;;;;;;;;5071780;28;19931;-80
2023/10/05 06:35:42;;;;;;;;;;;;;;;;;;5070530;28;19928;-82
2023/10/05 06:38:09;;;;;;;;;;;;;;;;;;5074046;28;19936;-80
2023/10/05 06:40:36;;;;;;;;;;;;;;;;;;5066119;28;20015;-80
2023/10/05 06:43:05;;;;;;;;;;;;;;;;;;5074459;28;20008;-80
2023/10/05 06:45:32;;;;;;;;;;;;;;;;;;5068759;28;20391;-81
2023/10/05 06:47:59;;;;;;;;;;;;;;;;;;5077471;28;19931;-80
2023/10/05 06:50:26;;;;;;;;;;;;;;;;;;5077569;28;19972;-80
2023/10/05 06:52:53;;;;;;;;;;;;;;;;;;5073939;28;19924;-82
2023/10/05 06:55:21;;;;;;;;;;;;;;;;;;5067226;28;19929;-80
2023/10/05 06:57:50;;;;;;;;;;;;;;;;;;5072294;28;19990;-81
2023/10/05 07:00:20;;;;;;;;;;;;;;;;;;5062360;28;19928;-79
2023/10/05 07:02:47;;;;;;;;;;;;;;;;;;5072016;28;20519;-80
2023/10/05 07:05:14;;;;;;;;;;;;;;;;;;5068204;28;20015;-81
2023/10/05 07:07:41;;;;;;;;;;;;;;;;;;5074811;28;19924;-79
2023/10/05 07:10:08;;;;;;;;;;;;;;;;;;5073263;28;19979;-80
2023/10/05 07:12:36;;;;;;;;;;;;;;;;;;5069974;28;20027;-80
2023/10/05 07:15:03;;;;;;;;;;;;;;;;;;5073097;28;20676;-79
2023/10/05 07:17:31;;;;;;;;;;;;;;;;;;5071275;28;19985;-79
2023/10/05 07:19:59;;;;;;;;;;;;;;;;;;5067388;28;20043;-80
2023/10/05 07:22:26;;;;;;;;;;;;;;;;;;5070428;28;19924;-80
2023/10/05 07:24:53;;;;;;;;;;;;;;;;;;5068573;28;19937;-80
2023/10/05 07:27:20;;;;;;;;;;;;;;;;;;5071869;28;20386;-78
2023/10/05 07:29:47;;;;;;;;;;;;;;;;;;5071259;28;19924;-76
2023/10/05 07:32:14;;;;;;;;;;;;;;;;;;5071729;28;20315;-76
2023/10/05 07:34:41;;;;;;;;;;;;;;;;;;5059187;28;20347;-75
2023/10/05 07:37:10;;;;;;;;;;;;;;;;;;5066677;28;20379;-77
2023/10/05 07:39:37;;;;;;;;;;;;;;;;;;5070902;28;20027;-75
2023/10/05 07:42:04;;;;;;;;;;;;;;;;;;5070499;28;19924;-76
2023/10/05 07:44:31;;;;;;;;;;;;;;;;;;5069581;28;20380;-75
2023/10/05 07:46:58;;;;;;;;;;;;;;;;;;5068845;28;20005;-77
2023/10/05 07:49:25;;;;;;;;;;;;;;;;;;5059009;28;19928;-77
2023/10/05 07:51:52;;;;;;;;;;;;;;;;;;5071646;28;19990;-76
2023/10/05 07:54:19;;;;;;;;;;;;;;;;;;5070401;28;20010;-75
2023/10/05 07:56:47;;;;;;;;;;;;;;;;;;5074847;28;20023;-75
2023/10/05 07:59:14;;;;;;;;;;;;;;;;;;5072393;28;19959;-75
2023/10/05 08:01:41;;;;;;;;;;;;;;;;;;5069382;28;19924;-75
2023/10/05 08:04:11;;;;;;;;;;;;;;;;;;5068139;28;19932;-76
2023/10/05 08:06:38;;;;;;;;;;;;;;;;;;5060229;28;19929;-76
2023/10/05 08:09:06;;;;;;;;;;;;;;;;;;5069435;28;19932;-74
2023/10/05 08:11:33;;;;;;;;;;;;;;;;;;5068093;28;19979;-77
2023/10/05 08:14:00;;;;;;;;;;;;;;;;;;5069896;28;19968;-76
2023/10/05 08:16:28;;;;;;;;;;;;;;;;;;5070622;28;20331;-75
2023/10/05 08:18:55;;;;;;;;;;;;;;;;;;5071962;28;19932;-73
2023/10/05 08:21:22;;;;;;;;;;;;;;;;;;5062294;28;20007;-72
2023/10/05 08:23:51;;;;;;;;;;;;;;;;;;5066004;28;19971;-72
2023/10/05 08:26:18;;;;;;;;;;;;;;;;;;5067439;28;19932;-72
2023/10/05 08:28:49;;;;;;;;;;;;;;;;;;5070326;28;20325;-75
2023/10/05 08:31:22;;;;;;;;;;;;;;;;;;5070897;28;19924;-72
2023/10/05 08:33:50;;;;;;;;;;;;;;;;;;5069585;28;19924;-72
2023/10/05 08:36:17;;;;;;;;;;;;;;;;;;5067728;28;20368;-70
2023/10/05 08:38:47;;;;;;;;;;;;;;;;;;5063609;28;19932;-70
2023/10/05 08:41:15;;;;;;;;;;;;;;;;;;5067466;28;19925;-71
2023/10/05 08:43:46;;;;;;;;;;;;;;;;;;5069243;28;19929;-71
2023/10/05 08:46:14;;;;;;;;;;;;;;;;;;5071316;28;20368;-77
2023/10/05 08:48:42;;;;;;;;;;;;;;;;;;5068325;28;20482;-77
2023/10/05 08:51:10;;;;;;;;;;;;;;;;;;5063506;28;19979;-74
2023/10/05 08:53:41;;;;;;;;;;;;;;;;;;5068915;28;20003;-70
2023/10/05 08:56:08;;;;;;;;;;;;;;;;;;5066045;28;19971;-74
2023/10/05 08:58:35;;;;;;;;;;;;;;;;;;5054445;28;19924;-72
2023/10/05 09:01:03;;;;;;;;;;;;;;;;;;5069234;28;19977;-73
2023/10/05 09:03:35;;;;;;;;;;;;;;;;;;5066979;28;19933;-74
2023/10/05 09:06:16;;;;;;;;;;;;;;;;;;5063171;28;19947;-73
2023/10/05 09:08:43;;;;;;;;;;;;;;;;;;5066380;28;19928;-74
2023/10/05 09:11:10;;;;;;;;;;;;;;;;;;5068281;28;19968;-73
2023/10/05 09:13:37;;;;;;;;;;;;;;;;;;5069725;28;20017;-72
2023/10/05 09:16:07;;;;;;;;;;;;;;;;;;5071009;28;19979;-73
2023/10/05 09:18:34;;;;;;;;;;;;;;;;;;5059873;28;19931;-73
2023/10/05 09:21:03;;;;;;;;;;;;;;;;;;5069090;28;19994;-73
2023/10/05 09:23:30;;;;;;;;;;;;;;;;;;5065731;28;19932;-73
2023/10/05 09:25:57;;;;;;;;;;;;;;;;;;5070918;28;20387;-73
2023/10/05 09:28:28;;;;;;;;;;;;;;;;;;5071190;28;19928;-71
2023/10/05 09:30:56;;;;;;;;;;;;;;;;;;5066004;28;20443;-70
2023/10/05 09:33:25;;;;;;;;;;;;;;;;;;5070388;28;19972;-73
2023/10/05 09:35:52;;;;;;;;;;;;;;;;;;5067378;28;19986;-73
2023/10/05 09:38:21;;;;;;;;;;;;;;;;;;5069009;28;19936;-73
2023/10/05 09:40:48;;;;;;;;;;;;;;;;;;5070908;28;19947;-73
2023/10/05 09:43:18;;;;;;;;;;;;;;;;;;5070424;28;19928;-73
2023/10/05 09:45:45;;;;;;;;;;;;;;;;;;5070012;28;19924;-73
2023/10/05 09:48:13;;;;;;;;;;;;;;;;;;5068966;28;19933;-73
2023/10/05 09:50:40;;;;;;;;;;;;;;;;;;5073519;28;19925;-73
2023/10/05 09:53:08;;;;;;;;;;;;;;;;;;5064689;28;19924;-73
2023/10/05 09:55:35;;;;;;;;;;;;;;;;;;5074064;28;19970;-73
2023/10/05 09:58:05;;;;;;;;;;;;;;;;;;5074845;28;19925;-73
2023/10/05 10:00:47;;;;;;;;;;;;;;;;;;5073424;28;19925;-74
2023/10/05 10:03:14;;;;;;;;;;;;;;;;;;5072769;28;19924;-73
2023/10/05 10:05:42;;;;;;;;;;;;;;;;;;5073603;28;19947;-71
2023/10/05 10:08:09;;;;;;;;;;;;;;;;;;5069170;28;20057;-73
2023/10/05 10:10:37;;;;;;;;;;;;;;;;;;5072526;28;19935;-73
2023/10/05 10:13:10;;;;;;;;;;;;;;;;;;5070357;28;19924;-73
2023/10/05 10:15:39;;;;;;;;;;;;;;;;;;5073320;28;19956;-73
2023/10/05 10:18:14;;;;;;;;;;;;;;;;;;5070815;28;20433;-73
2023/10/05 10:20:45;;;;;;;;;;;;;;;;;;5071610;28;20365;-74
2023/10/05 10:23:14;;;;;;;;;;;;;;;;;;5073135;28;19929;-75
2023/10/05 10:25:41;;;;;;;;;;;;;;;;;;5064723;28;20011;-75
2023/10/05 10:28:08;;;;;;;;;;;;;;;;;;5071447;28;19924;-74
2023/10/05 10:30:36;;;;;;;;;;;;;;;;;;5061407;28;19979;-74
2023/10/05 10:33:03;;;;;;;;;;;;;;;;;;5071931;28;19932;-75
2023/10/05 10:35:30;;;;;;;;;;;;;;;;;;5072163;28;19935;-75
2023/10/05 10:37:59;;;;;;;;;;;;;;;;;;5068075;28;20625;-75
2023/10/05 10:40:27;;;;;;;;;;;;;;;;;;5070338;28;19994;-75
2023/10/05 10:42:54;;;;;;;;;;;;;;;;;;5068650;28;19925;-75
2023/10/05 10:45:23;;;;;;;;;;;;;;;;;;5062966;28;19987;-75
2023/10/05 10:47:51;;;;;;;;;;;;;;;;;;5066020;28;20023;-76
2023/10/05 10:50:22;;;;;;;;;;;;;;;;;;5068867;28;20412;-75
2023/10/05 10:52:50;;;;;;;;;;;;;;;;;;5072588;28;20010;-75
2023/10/05 10:55:17;;;;;;;;;;;;;;;;;;5070919;28;19935;-76
2023/10/05 10:57:45;;;;;;;;;;;;;;;;;;5070441;28;19925;-75
2023/10/05 11:03:11;;;;;;;;;;;;;;;;;;5031997;28;20443;-73
2023/10/05 11:05:39;;;;;;;;;;;;;;;;;;5071462;28;19999;-73
2023/10/05 11:08:06;;;;;;;;;;;;;;;;;;5067843;28;19995;-72
2023/10/05 11:10:33;;;;;;;;;;;;;;;;;;5067714;28;19928;-72
2023/10/05 11:13:03;;;;;;;;;;;;;;;;;;5071142;28;19928;-72
2023/10/05 11:15:30;;;;;;;;;;;;;;;;;;5066941;28;19932;-72
2023/10/05 11:17:58;;;;;;;;;;;;;;;;;;5066577;28;19924;-75
2023/10/05 11:20:26;;;;;;;;;;;;;;;;;;5071485;28;19978;-75
2023/10/05 11:22:55;;;;;;;;;;;;;;;;;;5071665;28;19925;-75
2023/10/05 11:25:31;;;;;;;;;;;;;;;;;;5065753;28;19955;-76
2023/10/05 11:27:59;;;;;;;;;;;;;;;;;;5067491;28;20023;-74
2023/10/05 11:30:26;;;;;;;;;;;;;;;;;;5068639;28;19997;-73
2023/10/05 11:32:56;;;;;;;;;;;;;;;;;;5072609;28;20428;-75
2023/10/05 11:35:28;;;;;;;;;;;;;;;;;;5071423;28;19947;-73
2023/10/05 11:37:59;;;;;;;;;;;;;;;;;;5071007;28;20388;-74
2023/10/05 11:40:26;;;;;;;;;;;;;;;;;;5067196;28;20360;-74
2023/10/05 11:42:56;;;;;;;;;;;;;;;;;;5069426;28;19959;-74
2023/10/05 11:45:23;;;;;;;;;;;;;;;;;;5061262;28;19932;-74
2023/10/05 11:47:52;;;;;;;;;;;;;;;;;;5067433;28;20330;-74
2023/10/05 11:50:25;;;;;;;;;;;;;;;;;;5071225;28;20055;-74
2023/10/05 11:52:53;;;;;;;;;;;;;;;;;;5070255;28;19996;-74
2023/10/05 11:55:20;;;;;;;;;;;;;;;;;;5072143;28;19924;-74
2023/10/05 11:57:47;;;;;;;;;;;;;;;;;;5066654;28;20331;-78
2023/10/05 12:00:15;;;;;;;;;;;;;;;;;;5068289;28;19974;-74
2023/10/05 12:02:43;;;;;;;;;;;;;;;;;;5072352;28;19924;-74
2023/10/05 12:05:11;;;;;;;;;;;;;;;;;;5062028;28;19925;-75
2023/10/05 12:07:41;;;;;;;;;;;;;;;;;;5068710;28;20117;-73
2023/10/05 12:10:09;;;;;;;;;;;;;;;;;;5071306;28;19928;-74
2023/10/05 12:12:36;;;;;;;;;;;;;;;;;;5067430;28;19925;-74
2023/10/05 12:15:12;;;;;;;;;;;;;;;;;;5069380;28;19924;-74
2023/10/05 12:17:39;;;;;;;;;;;;;;;;;;5071215;28;20353;-75
2023/10/05 12:20:06;;;;;;;;;;;;;;;;;;5063224;28;19928;-76
2023/10/05 12:22:37;;;;;;;;;;;;;;;;;;5071518;28;20430;-75
2023/10/05 12:25:07;;;;;;;;;;;;;;;;;;5071281;28;19924;-75
2023/10/05 12:27:35;;;;;;;;;;;;;;;;;;5071851;28;19978;-75
2023/10/05 12:30:10;;;;;;;;;;;;;;;;;;5071873;28;19925;-74
2023/10/05 12:32:37;;;;;;;;;;;;;;;;;;5068890;28;20015;-74
2023/10/05 12:35:06;;;;;;;;;;;;;;;;;;5070788;28;19931;-74
2023/10/05 12:37:33;;;;;;;;;;;;;;;;;;5058256;28;20006;-75
2023/10/05 12:40:17;;;;;;;;;;;;;;;;;;5071402;28;19975;-74
2023/10/05 12:42:51;;;;;;;;;;;;;;;;;;5069749;28;19956;-74
2023/10/05 12:45:20;;;;;;;;;;;;;;;;;;5067271;28;19932;-74
2023/10/05 12:47:47;;;;;;;;;;;;;;;;;;5064267;28;19931;-75
2023/10/05 12:50:16;;;;;;;;;;;;;;;;;;5067348;28;21242;-74
2023/10/05 12:52:43;;;;;;;;;;;;;;;;;;5070360;28;19931;-76
2023/10/05 12:55:10;;;;;;;;;;;;;;;;;;5064716;28;20387;-74
2023/10/05 12:57:38;;;;;;;;;;;;;;;;;;5071549;28;19931;-74
2023/10/05 13:00:19;;;;;;;;;;;;;;;;;;5067131;28;20061;-74
2023/10/05 13:02:46;;;;;;;;;;;;;;;;;;5068413;28;19986;-73
2023/10/05 13:05:17;;;;;;;;;;;;;;;;;;5067725;28;19928;-74
2023/10/05 13:07:44;;;;;;;;;;;;;;;;;;5065030;28;19931;-74
2023/10/05 13:10:13;;;;;;;;;;;;;;;;;;5070487;28;19977;-74
2023/10/05 13:12:41;;;;;;;;;;;;;;;;;;5068919;28;19960;-73
2023/10/05 13:15:08;;;;;;;;;;;;;;;;;;5067487;28;19936;-73
2023/10/05 13:17:38;;;;;;;;;;;;;;;;;;5069972;28;19948;-74
2023/10/05 13:20:05;;;;;;;;;;;;;;;;;;5064427;28;20074;-73
2023/10/05 13:22:33;;;;;;;;;;;;;;;;;;5020842;28;19925;-75
2023/10/05 13:25:00;;;;;;;;;;;;;;;;;;5058997;28;19929;-72
2023/10/05 13:27:28;;;;;;;;;;;;;;;;;;5067761;28;20482;-73
2023/10/05 13:29:55;;;;;;;;;;;;;;;;;;5065985;28;20345;-72
2023/10/05 13:32:26;;;;;;;;;;;;;;;;;;5069565;28;19924;-73
2023/10/05 13:34:53;;;;;;;;;;;;;;;;;;5066729;28;19925;-72
2023/10/05 13:37:20;;;;;;;;;;;;;;;;;;5067755;28;20321;-75
2023/10/05 13:39:48;;;;;;;;;;;;;;;;;;5069618;28;20003;-75
2023/10/05 13:42:25;;;;;;;;;;;;;;;;;;5070693;28;20334;-75
2023/10/05 13:44:53;;;;;;;;;;;;;;;;;;5070435;28;19981;-75
2023/10/05 13:47:20;;;;;;;;;;;;;;;;;;5069913;28;20003;-74
2023/10/05 13:49:54;;;;;;;;;;;;;;;;;;5070284;28;19975;-72
2023/10/05 13:52:22;;;;;;;;;;;;;;;;;;5066315;28;19932;-73
2023/10/05 13:54:49;;;;;;;;;;;;;;;;;;5067753;28;19924;-75
2023/10/05 13:57:16;;;;;;;;;;;;;;;;;;5067318;28;19928;-72
2023/10/05 13:59:43;;;;;;;;;;;;;;;;;;5066375;28;19924;-72
2023/10/05 14:02:10;;;;;;;;;;;;;;;;;;5068459;28;19982;-73
2023/10/05 14:04:43;;;;;;;;;;;;;;;;;;5069584;28;20386;-76
2023/10/05 14:07:10;;;;;;;;;;;;;;;;;;5070923;28;19924;-70
2023/10/05 14:09:44;;;;;;;;;;;;;;;;;;5069400;28;19924;-70
2023/10/05 14:12:11;;;;;;;;;;;;;;;;;;5070292;28;19931;-71
2023/10/05 14:14:38;;;;;;;;;;;;;;;;;;5068494;28;20012;-71
2023/10/05 14:17:06;;;;;;;;;;;;;;;;;;5067325;28;20407;-70
2023/10/05 14:19:33;;;;;;;;;;;;;;;;;;5070220;28;19932;-71
2023/10/05 14:22:00;;;;;;;;;;;;;;;;;;5067853;28;20322;-74
2023/10/05 14:24:29;;;;;;;;;;;;;;;;;;5071199;28;19924;-72
2023/10/05 14:26:57;;;;;;;;;;;;;;;;;;5065688;28;20354;-74
2023/10/05 14:29:34;;;;;;;;;;;;;;;;;;5064325;28;19968;-73
2023/10/05 14:32:04;;;;;;;;;;;;;;;;;;5062387;28;19925;-75
2023/10/05 14:34:31;;;;;;;;;;;;;;;;;;5069245;28;20437;-74
2023/10/05 14:36:59;;;;;;;;;;;;;;;;;;5072757;28;19991;-75
2023/10/05 14:39:32;;;;;;;;;;;;;;;;;;5073059;28;19932;-73
2023/10/05 14:42:00;;;;;;;;;;;;;;;;;;5073510;28;19955;-74
2023/10/05 14:44:28;;;;;;;;;;;;;;;;;;5067164;28;19967;-74
2023/10/05 14:46:57;;;;;;;;;;;;;;;;;;5067388;28;19964;-74
2023/10/05 14:49:25;;;;;;;;;;;;;;;;;;5063016;28;19931;-75
2023/10/05 14:51:52;;;;;;;;;;;;;;;;;;5067060;28;20356;-73
2023/10/05 14:54:21;;;;;;;;;;;;;;;;;;5069876;28;19925;-74
2023/10/05 14:56:48;;;;;;;;;;;;;;;;;;5070259;28;20347;-74
2023/10/05 14:59:15;;;;;;;;;;;;;;;;;;5072180;28;19947;-74
2023/10/05 15:01:43;;;;;;;;;;;;;;;;;;5075855;28;19925;-73
2023/10/05 15:04:11;;;;;;;;;;;;;;;;;;5071835;28;20371;-74
2023/10/05 15:06:38;;;;;;;;;;;;;;;;;;5070583;28;20429;-73
2023/10/05 15:09:05;;;;;;;;;;;;;;;;;;5070865;28;20400;-73
2023/10/05 15:11:33;;;;;;;;;;;;;;;;;;5076059;28;19971;-74
2023/10/05 15:16:35;;;;;;;;;;;;;;;;;;5077230;23;19981;-74
2023/10/05 15:19:02;;;;;;;;;;;;;;;;;;5070554;28;19936;-75
2023/10/05 15:21:30;;;;;;;;;;;;;;;;;;5064471;28;19947;-74
2023/10/05 15:23:58;;;;;;;;;;;;;;;;;;5070492;28;19925;-75
2023/10/05 15:26:25;;;;;;;;;;;;;;;;;;5071511;28;20487;-74
2023/10/05 15:28:52;;;;;;;;;;;;;;;;;;5070376;28;19924;-73
2023/10/05 15:31:19;;;;;;;;;;;;;;;;;;5071033;28;19925;-74
2023/10/05 15:33:46;;;;;;;;;;;;;;;;;;5072525;28;19954;-73
2023/10/05 15:36:13;;;;;;;;;;;;;;;;;;5072966;28;19925;-73
2023/10/05 15:38:40;;;;;;;;;;;;;;;;;;5073164;28;19929;-74
2023/10/05 15:41:07;;;;;;;;;;;;;;;;;;5073390;28;19932;-74
2023/10/05 15:43:36;;;;;;;;;;;;;;;;;;5072026;28;19986;-73
2023/10/05 15:46:03;;;;;;;;;;;;;;;;;;5071288;28;19924;-75
2023/10/05 15:48:30;;;;;;;;;;;;;;;;;;5073013;28;19929;-74
2023/10/05 15:50:57;;;;;;;;;;;;;;;;;;5066302;28;19990;-74
2023/10/05 15:53:24;;;;;;;;;;;;;;;;;;5073408;28;19963;-74
2023/10/05 15:55:52;;;;;;;;;;;;;;;;;;5073665;28;20440;-74
2023/10/05 15:58:19;;;;;;;;;;;;;;;;;;5071424;28;19970;-74
2023/10/05 16:00:46;;;;;;;;;;;;;;;;;;5072282;28;19932;-74
2023/10/05 16:03:14;;;;;;;;;;;;;;;;;;5073030;28;20019;-73
2023/10/05 16:05:42;;;;;;;;;;;;;;;;;;5073938;28;19925;-74
2023/10/05 16:08:09;;;;;;;;;;;;;;;;;;5072605;28;19978;-73
2023/10/05 16:10:37;;;;;;;;;;;;;;;;;;5067726;28;19924;-73
2023/10/05 16:13:07;;;;;;;;;;;;;;;;;;5066093;28;20298;-73
2023/10/05 16:15:34;;;;;;;;;;;;;;;;;;5067581;28;19931;-74
2023/10/05 16:18:02;;;;;;;;;;;;;;;;;;5070509;28;20291;-73
2023/10/05 16:20:30;;;;;;;;;;;;;;;;;;5071868;28;19936;-73
2023/10/05 16:23:00;;;;;;;;;;;;;;;;;;5071653;28;19971;-73
2023/10/05 16:25:27;;;;;;;;;;;;;;;;;;5070386;28;19931;-73
2023/10/05 16:27:55;;;;;;;;;;;;;;;;;;5070535;28;19928;-74
2023/10/05 16:30:22;;;;;;;;;;;;;;;;;;5071017;28;20029;-74
2023/10/05 16:32:49;;;;;;;;;;;;;;;;;;5067797;28;20457;-74
2023/10/05 16:35:16;;;;;;;;;;;;;;;;;;5070608;28;19940;-74
2023/10/05 16:37:43;;;;;;;;;;;;;;;;;;5072183;28;20391;-74
2023/10/05 16:40:11;;;;;;;;;;;;;;;;;;5072395;28;19952;-74
2023/10/05 16:42:39;;;;;;;;;;;;;;;;;;5071868;28;20015;-74
2023/10/05 16:45:06;;;;;;;;;;;;;;;;;;5070737;28;19925;-74
2023/10/05 16:47:33;;;;;;;;;;;;;;;;;;5070509;28;19932;-73
2023/10/05 16:50:00;;;;;;;;;;;;;;;;;;5071331;28;20377;-73
2023/10/05 16:52:28;;;;;;;;;;;;;;;;;;5071490;28;19928;-74
2023/10/05 16:54:55;;;;;;;;;;;;;;;;;;5072169;28;20375;-73
2023/10/05 16:57:22;;;;;;;;;;;;;;;;;;5068644;28;19978;-74
2023/10/05 16:59:49;;;;;;;;;;;;;;;;;;5062971;28;20035;-72
2023/10/05 17:02:17;;;;;;;;;;;;;;;;;;5070507;28;19997;-74
2023/10/05 17:04:44;;;;;;;;;;;;;;;;;;5071255;28;19925;-73
2023/10/05 17:07:11;;;;;;;;;;;;;;;;;;5070009;28;20003;-75